Time;durP1;ratioP1;P1;durP2;ratioP2;P2;SDS_P1;SDS_P2;PMS_P1;PMS_P2;Temp;Humidity;BMP_temperature;BMP_pressure;BME280_temperature;BME280_humidity;BME280_pressure;Samples;Min_cycle;Max_cycle;Signal;HPM_P1;HPM_P2
2021/11/30 00:01:07;;;;;;;;;;;6.00;63.90;;;;;;5072975;28;19908;-67
2021/11/30 00:03:33;;;;;;;;;;;6.00;63.80;;;;;;5072908;28;19916;-67
2021/11/30 00:05:59;;;;;;;;;;;6.00;63.80;;;;;;5072927;28;19909;-68
2021/11/30 00:08:29;;;;;;;;;;;6.00;63.90;;;;;;5072560;28;19915;-67
2021/11/30 00:10:57;;;;;;;;;;;6.00;64.00;;;;;;5054821;28;19908;-67
2021/11/30 00:13:23;;;;;;;;;;;6.00;64.00;;;;;;5072760;28;19970;-67
2021/11/30 00:15:49;;;;;;;;;;;5.90;63.90;;;;;;5072516;28;19920;-67
2021/11/30 00:18:16;;;;;;;;;;;5.90;64.00;;;;;;5072775;28;19909;-68
2021/11/30 00:20:42;;;;;;;;;;;5.90;64.00;;;;;;5072755;28;19908;-68
2021/11/30 00:23:08;;;;;;;;;;;5.80;63.90;;;;;;5072716;28;20354;-68
2021/11/30 00:25:34;;;;;;;;;;;5.80;64.00;;;;;;5072510;28;19919;-67
2021/11/30 00:27:59;;;;;;;;;;;5.80;64.20;;;;;;5072657;28;19999;-68
2021/11/30 00:30:25;;;;;;;;;;;5.70;64.30;;;;;;5072597;28;19916;-67
2021/11/30 00:32:52;;;;;;;;;;;5.70;64.40;;;;;;5054585;28;19966;-67
2021/11/30 00:35:18;;;;;;;;;;;5.80;64.60;;;;;;5072715;28;19908;-67
2021/11/30 00:37:44;;;;;;;;;;;5.80;64.70;;;;;;5076335;28;19905;-67
2021/11/30 00:40:10;;;;;;;;;;;5.80;65.00;;;;;;5076258;28;20362;-67
2021/11/30 00:42:36;;;;;;;;;;;5.80;64.70;;;;;;5076224;28;20358;-67
2021/11/30 00:45:05;;;;;;;;;;;5.80;64.60;;;;;;5076216;28;20354;-67
2021/11/30 00:47:31;;;;;;;;;;;5.90;64.60;;;;;;5058468;28;20282;-68
2021/11/30 00:49:58;;;;;;;;;;;5.90;64.60;;;;;;5076099;28;19911;-67
2021/11/30 00:52:24;;;;;;;;;;;5.90;64.70;;;;;;5058102;28;19912;-67
2021/11/30 00:54:50;;;;;;;;;;;5.90;64.80;;;;;;5075986;28;19954;-67
2021/11/30 00:57:16;;;;;;;;;;;5.90;64.80;;;;;;5075989;28;19913;-67
2021/11/30 00:59:42;;;;;;;;;;;5.90;64.80;;;;;;5075943;28;19908;-67
2021/11/30 01:02:07;;;;;;;;;;;6.00;64.80;;;;;;5075873;28;19915;-67
2021/11/30 01:04:33;;;;;;;;;;;6.00;64.80;;;;;;5075845;28;19935;-68
2021/11/30 01:06:59;;;;;;;;;;;6.00;64.80;;;;;;5075822;28;20381;-67
2021/11/30 01:09:25;;;;;;;;;;;6.00;64.80;;;;;;5075754;28;19908;-67
2021/11/30 01:11:51;;;;;;;;;;;6.00;64.80;;;;;;5075637;28;19974;-67
2021/11/30 01:14:17;;;;;;;;;;;6.00;64.80;;;;;;5057418;28;19909;-67
2021/11/30 01:16:43;;;;;;;;;;;6.00;64.90;;;;;;5075679;28;20369;-67
2021/11/30 01:19:08;;;;;;;;;;;6.00;64.80;;;;;;5075608;28;19915;-67
2021/11/30 01:21:35;;;;;;;;;;;6.00;64.80;;;;;;5075494;28;19916;-67
2021/11/30 01:24:01;;;;;;;;;;;5.90;64.70;;;;;;5075489;28;20357;-67
2021/11/30 01:26:27;;;;;;;;;;;5.90;64.70;;;;;;5075490;28;19909;-68
2021/11/30 01:28:52;;;;;;;;;;;5.90;64.70;;;;;;5075425;28;19915;-67
2021/11/30 01:31:18;;;;;;;;;;;5.90;64.70;;;;;;5075380;28;19909;-68
2021/11/30 01:33:44;;;;;;;;;;;5.90;64.70;;;;;;5075280;28;19951;-67
2021/11/30 01:36:10;;;;;;;;;;;5.90;64.80;;;;;;5075326;28;20358;-67
2021/11/30 01:38:36;;;;;;;;;;;5.90;64.80;;;;;;5057271;28;19908;-67
2021/11/30 01:41:03;;;;;;;;;;;5.90;64.70;;;;;;5075238;28;19916;-68
2021/11/30 01:43:38;;;;;;;;;;;5.90;64.70;;;;;;5075097;28;20277;-67
2021/11/30 01:51:30;;;;;;;;;;;5.90;64.70;;;;;;4993374;28;19910;-67
2021/11/30 01:53:57;;;;;;;;;;;5.90;64.60;;;;;;4993479;28;19961;-67
2021/11/30 01:56:23;;;;;;;;;;;5.90;64.50;;;;;;4993511;28;20453;-67
2021/11/30 01:58:49;;;;;;;;;;;5.90;64.30;;;;;;4993461;28;19917;-67
2021/11/30 02:01:15;;;;;;;;;;;5.90;64.30;;;;;;4993313;28;20326;-67
2021/11/30 02:03:41;;;;;;;;;;;5.90;64.20;;;;;;4993204;28;19910;-68
2021/11/30 02:06:07;;;;;;;;;;;5.80;64.20;;;;;;4993182;28;19910;-67
2021/11/30 02:08:33;;;;;;;;;;;5.80;64.30;;;;;;4993081;28;20276;-67
2021/11/30 02:10:58;;;;;;;;;;;5.80;64.40;;;;;;4993039;28;19914;-67
2021/11/30 02:13:25;;;;;;;;;;;5.80;64.60;;;;;;4992799;28;20398;-67
2021/11/30 02:15:54;;;;;;;;;;;5.80;64.50;;;;;;4992755;28;19928;-67
2021/11/30 02:18:23;;;;;;;;;;;5.80;64.50;;;;;;4992942;28;19917;-67
2021/11/30 02:20:53;;;;;;;;;;;5.90;64.50;;;;;;4992874;28;20371;-67
2021/11/30 02:25:56;;;;;;;;;;;5.90;64.20;;;;;;4994757;28;19913;-68
2021/11/30 02:28:22;;;;;;;;;;;5.90;64.30;;;;;;5074106;28;19908;-68
2021/11/30 02:30:48;;;;;;;;;;;5.90;64.30;;;;;;5074099;28;20269;-67
2021/11/30 02:33:13;;;;;;;;;;;5.90;64.50;;;;;;5073985;28;20393;-67
2021/11/30 02:35:39;;;;;;;;;;;5.90;64.30;;;;;;5074035;28;19909;-67
2021/11/30 02:38:08;;;;;;;;;;;5.90;64.20;;;;;;5074020;28;19955;-67
2021/11/30 02:40:34;;;;;;;;;;;5.90;64.20;;;;;;5073962;28;19919;-67
2021/11/30 02:43:01;;;;;;;;;;;5.90;64.30;;;;;;5073859;28;19962;-68
2021/11/30 02:45:26;;;;;;;;;;;5.90;64.20;;;;;;5073900;28;19953;-68
2021/11/30 02:47:52;;;;;;;;;;;5.90;64.20;;;;;;5073637;28;19908;-67
2021/11/30 02:50:17;;;;;;;;;;;6.00;64.40;;;;;;5073801;28;20388;-68
2021/11/30 02:52:43;;;;;;;;;;;6.00;64.30;;;;;;5073608;28;19936;-67
2021/11/30 02:55:09;;;;;;;;;;;6.00;64.30;;;;;;5073695;28;20381;-67
2021/11/30 02:57:34;;;;;;;;;;;6.00;64.20;;;;;;5073694;28;19986;-67
2021/11/30 03:00:00;;;;;;;;;;;6.00;64.30;;;;;;5073350;28;20255;-67
2021/11/30 03:02:26;;;;;;;;;;;6.00;64.30;;;;;;5073545;28;20023;-67
2021/11/30 03:04:53;;;;;;;;;;;6.00;64.20;;;;;;5073440;28;19940;-68
2021/11/30 03:07:20;;;;;;;;;;;6.10;64.30;;;;;;5073542;28;20281;-67
2021/11/30 03:09:46;;;;;;;;;;;6.10;64.30;;;;;;5073595;28;19912;-67
2021/11/30 03:12:11;;;;;;;;;;;6.10;64.20;;;;;;5073426;28;20396;-67
2021/11/30 03:14:38;;;;;;;;;;;6.10;64.30;;;;;;5073281;28;20380;-68
2021/11/30 03:17:04;;;;;;;;;;;6.10;64.20;;;;;;5073360;28;19913;-67
2021/11/30 03:19:30;;;;;;;;;;;6.10;64.10;;;;;;5073289;28;19999;-67
2021/11/30 03:21:56;;;;;;;;;;;6.10;64.10;;;;;;5073230;28;19940;-68
2021/11/30 03:24:21;;;;;;;;;;;6.20;64.10;;;;;;5073227;28;19935;-68
2021/11/30 03:26:47;;;;;;;;;;;6.20;64.10;;;;;;5073180;28;20098;-68
2021/11/30 03:29:13;;;;;;;;;;;6.20;64.10;;;;;;5073192;28;19955;-67
2021/11/30 03:34:09;;;;;;;;;;;6.20;64.10;;;;;;5073135;28;19908;-68
2021/11/30 03:36:36;;;;;;;;;;;6.20;64.10;;;;;;5055128;28;19920;-68
2021/11/30 03:39:05;;;;;;;;;;;6.20;64.10;;;;;;5073203;28;20277;-68
2021/11/30 03:41:33;;;;;;;;;;;6.10;64.10;;;;;;5073066;28;19915;-68
2021/11/30 03:43:59;;;;;;;;;;;6.20;64.20;;;;;;5072968;28;19908;-67
2021/11/30 03:46:25;;;;;;;;;;;6.20;64.20;;;;;;5072993;28;20393;-67
2021/11/30 03:48:50;;;;;;;;;;;6.20;64.20;;;;;;5072887;28;19995;-67
2021/11/30 03:51:16;;;;;;;;;;;6.20;64.10;;;;;;5054838;28;19914;-68
2021/11/30 03:53:42;;;;;;;;;;;6.20;64.20;;;;;;5072865;28;19916;-68
2021/11/30 03:56:07;;;;;;;;;;;6.20;64.10;;;;;;5072925;28;19908;-68
2021/11/30 03:58:33;;;;;;;;;;;6.20;64.10;;;;;;5054914;28;20007;-67
2021/11/30 04:00:59;;;;;;;;;;;6.20;64.20;;;;;;5072768;28;19940;-68
2021/11/30 04:03:28;;;;;;;;;;;6.20;64.10;;;;;;5054897;28;19940;-68
2021/11/30 04:05:53;;;;;;;;;;;6.20;64.10;;;;;;5072813;28;19908;-68
2021/11/30 04:08:19;;;;;;;;;;;6.20;64.10;;;;;;5072730;28;19957;-68
2021/11/30 04:10:45;;;;;;;;;;;6.20;64.10;;;;;;5073538;28;20003;-68
2021/11/30 04:13:10;;;;;;;;;;;6.20;64.10;;;;;;5076704;28;19912;-68
2021/11/30 04:15:36;;;;;;;;;;;6.20;64.00;;;;;;5076531;28;19921;-68
2021/11/30 04:18:02;;;;;;;;;;;6.20;64.10;;;;;;5076746;28;19955;-67
2021/11/30 04:20:27;;;;;;;;;;;6.20;64.10;;;;;;5076891;28;19931;-67
2021/11/30 04:22:53;;;;;;;;;;;6.20;64.20;;;;;;5076934;28;19908;-68
2021/11/30 04:25:19;;;;;;;;;;;6.20;64.20;;;;;;5076543;28;19908;-67
2021/11/30 04:27:45;;;;;;;;;;;6.20;64.20;;;;;;5076347;28;19909;-68
2021/11/30 04:30:10;;;;;;;;;;;6.20;64.00;;;;;;5076435;28;19908;-68
2021/11/30 04:32:36;;;;;;;;;;;6.20;64.00;;;;;;5076306;28;19919;-67
2021/11/30 04:35:03;;;;;;;;;;;6.20;64.00;;;;;;5076321;28;19915;-68
2021/11/30 04:37:29;;;;;;;;;;;6.20;63.90;;;;;;5076251;28;19908;-68
2021/11/30 04:39:54;;;;;;;;;;;6.20;63.90;;;;;;5076046;28;19915;-68
2021/11/30 04:42:26;;;;;;;;;;;6.20;63.80;;;;;;5076116;28;19909;-67
2021/11/30 04:47:33;;;;;;;;;;;6.20;63.90;;;;;;5076108;28;19913;-68
2021/11/30 04:50:02;;;;;;;;;;;6.10;63.90;;;;;;5076006;28;19934;-68
2021/11/30 04:52:30;;;;;;;;;;;6.10;63.90;;;;;;5075871;28;19920;-68
2021/11/30 04:54:56;;;;;;;;;;;6.10;63.90;;;;;;5057946;28;20366;-68
2021/11/30 04:57:21;;;;;;;;;;;6.10;63.90;;;;;;5075948;28;19912;-68
2021/11/30 04:59:47;;;;;;;;;;;6.10;64.00;;;;;;5075725;28;20389;-68
2021/11/30 05:02:13;;;;;;;;;;;6.20;64.00;;;;;;5075772;28;19977;-68
2021/11/30 05:04:39;;;;;;;;;;;6.20;64.10;;;;;;5057782;28;19908;-67
2021/11/30 05:07:04;;;;;;;;;;;6.20;64.10;;;;;;5075662;28;19915;-68
2021/11/30 05:09:30;;;;;;;;;;;6.20;64.10;;;;;;5075425;28;19934;-68
2021/11/30 05:11:56;;;;;;;;;;;6.20;64.20;;;;;;5075505;28;19965;-68
2021/11/30 05:14:21;;;;;;;;;;;6.20;64.10;;;;;;5075216;28;20384;-67
2021/11/30 05:16:47;;;;;;;;;;;6.20;63.90;;;;;;5075444;28;19919;-68
2021/11/30 05:19:13;;;;;;;;;;;6.20;63.90;;;;;;5075394;28;19908;-68
2021/11/30 05:21:39;;;;;;;;;;;6.20;63.90;;;;;;5075242;28;19947;-67
2021/11/30 05:24:07;;;;;;;;;;;6.30;63.90;;;;;;5075591;28;19935;-68
2021/11/30 05:26:32;;;;;;;;;;;6.30;63.90;;;;;;5057246;28;19908;-68
2021/11/30 05:28:58;;;;;;;;;;;6.30;63.90;;;;;;5057175;28;19999;-68
2021/11/30 05:31:24;;;;;;;;;;;6.30;63.90;;;;;;5075026;28;19908;-68
2021/11/30 05:33:49;;;;;;;;;;;6.30;64.00;;;;;;5074831;28;20381;-68
2021/11/30 05:36:19;;;;;;;;;;;6.30;64.00;;;;;;5074909;28;19913;-68
2021/11/30 05:38:44;;;;;;;;;;;6.30;64.10;;;;;;5075043;28;19908;-67
2021/11/30 05:41:10;;;;;;;;;;;6.30;64.10;;;;;;5075131;28;19920;-66
2021/11/30 05:43:36;;;;;;;;;;;6.30;64.90;;;;;;5074969;28;20366;-67
2021/11/30 05:46:01;;;;;;;;;;;6.30;64.10;;;;;;5075022;28;19909;-68
2021/11/30 05:48:27;;;;;;;;;;;6.30;64.10;;;;;;5074909;28;19913;-68
2021/11/30 05:50:53;;;;;;;;;;;6.30;64.10;;;;;;5074756;28;19948;-68
2021/11/30 05:53:19;;;;;;;;;;;6.30;64.10;;;;;;5074849;28;20003;-68
2021/11/30 05:55:48;;;;;;;;;;;6.30;64.00;;;;;;5074758;28;20413;-67
2021/11/30 05:58:14;;;;;;;;;;;6.30;64.10;;;;;;5074758;28;19930;-68
2021/11/30 06:00:40;;;;;;;;;;;6.40;64.20;;;;;;5074620;28;19908;-67
2021/11/30 06:03:09;;;;;;;;;;;6.30;64.10;;;;;;5074914;28;20354;-67
2021/11/30 06:05:34;;;;;;;;;;;6.30;64.10;;;;;;5074514;28;19912;-67
2021/11/30 06:08:03;;;;;;;;;;;6.30;64.10;;;;;;5074356;28;19916;-68
2021/11/30 06:10:28;;;;;;;;;;;6.30;64.10;;;;;;5074420;28;19908;-68
2021/11/30 06:12:54;;;;;;;;;;;6.30;64.10;;;;;;5074170;28;20011;-68
2021/11/30 06:15:20;;;;;;;;;;;6.30;64.20;;;;;;5074110;28;19921;-68
2021/11/30 06:17:46;;;;;;;;;;;6.20;64.20;;;;;;5074234;28;19909;-67
2021/11/30 06:20:12;;;;;;;;;;;6.20;64.30;;;;;;5074414;28;19988;-68
2021/11/30 06:22:38;;;;;;;;;;;6.20;64.40;;;;;;5074265;28;20338;-68
2021/11/30 06:25:05;;;;;;;;;;;6.20;64.50;;;;;;5074212;28;19908;-68
2021/11/30 06:27:31;;;;;;;;;;;6.20;64.60;;;;;;5074190;28;19922;-68
2021/11/30 06:29:57;;;;;;;;;;;6.10;64.70;;;;;;5073978;28;19908;-68
2021/11/30 06:32:23;;;;;;;;;;;6.10;64.80;;;;;;5073945;28;20011;-68
2021/11/30 06:34:49;;;;;;;;;;;6.10;64.80;;;;;;5073450;28;19909;-67
2021/11/30 06:37:14;;;;;;;;;;;6.10;64.90;;;;;;5074019;28;19954;-67
2021/11/30 06:39:40;;;;;;;;;;;6.10;65.00;;;;;;5073736;28;20042;-68
2021/11/30 06:42:06;;;;;;;;;;;6.10;65.00;;;;;;5073862;28;20282;-68
2021/11/30 06:44:33;;;;;;;;;;;6.10;65.00;;;;;;5073816;28;19909;-69
2021/11/30 06:46:59;;;;;;;;;;;6.10;65.00;;;;;;5073752;28;20378;-68
2021/11/30 06:49:24;;;;;;;;;;;6.10;65.00;;;;;;5073609;28;19915;-68
2021/11/30 06:51:50;;;;;;;;;;;6.10;65.00;;;;;;5073595;28;20372;-67
2021/11/30 06:54:16;;;;;;;;;;;6.10;65.10;;;;;;5073607;28;20428;-68
2021/11/30 06:56:41;;;;;;;;;;;6.10;65.10;;;;;;5073554;28;19914;-67
2021/11/30 06:59:07;;;;;;;;;;;6.10;65.20;;;;;;5073606;28;19962;-67
2021/11/30 07:01:34;;;;;;;;;;;6.20;65.20;;;;;;5073314;28;19924;-68
2021/11/30 07:04:02;;;;;;;;;;;6.20;65.30;;;;;;5073350;28;20362;-68
2021/11/30 07:07:02;;;;;;;;;;;6.20;65.30;;;;;;5073288;28;19938;-67
2021/11/30 07:09:35;;;;;;;;;;;6.20;65.30;;;;;;5072826;28;19908;-67
2021/11/30 07:12:49;;;;;;;;;;;6.20;65.30;;;;;;5073267;28;19912;-68
2021/11/30 07:14:53;;;;;;;;;;;6.30;65.40;;;;;;5068957;28;19920;-68
2021/11/30 07:17:18;;;;;;;;;;;6.30;65.30;;;;;;5055383;28;19908;-68
2021/11/30 07:19:44;;;;;;;;;;;6.30;65.30;;;;;;5073347;28;19905;-67
2021/11/30 07:22:10;;;;;;;;;;;6.30;65.30;;;;;;5073269;28;19973;-67
2021/11/30 07:24:35;;;;;;;;;;;6.30;65.30;;;;;;5073187;28;19904;-67
2021/11/30 07:27:01;;;;;;;;;;;6.30;65.30;;;;;;5073071;28;19962;-67
2021/11/30 07:29:27;;;;;;;;;;;6.30;65.30;;;;;;5073027;28;19904;-67
2021/11/30 07:31:53;;;;;;;;;;;6.30;65.30;;;;;;5072995;28;19908;-68
2021/11/30 07:34:19;;;;;;;;;;;6.30;65.30;;;;;;5072870;28;20003;-68
2021/11/30 07:36:44;;;;;;;;;;;6.30;65.40;;;;;;5072987;28;19967;-68
2021/11/30 07:39:10;;;;;;;;;;;6.30;65.30;;;;;;5054951;28;20370;-67
2021/11/30 07:41:36;;;;;;;;;;;6.30;65.40;;;;;;5072867;28;19909;-68
2021/11/30 07:44:03;;;;;;;;;;;6.30;65.40;;;;;;5072949;28;19916;-67
2021/11/30 07:46:28;;;;;;;;;;;6.30;65.40;;;;;;5071997;28;20274;-68
2021/11/30 07:48:54;;;;;;;;;;;6.30;65.40;;;;;;5072887;28;19931;-67
2021/11/30 07:51:22;;;;;;;;;;;6.30;65.40;;;;;;5072868;28;19991;-67
2021/11/30 07:53:49;;;;;;;;;;;6.30;65.50;;;;;;5072773;28;19935;-68
2021/11/30 07:56:14;;;;;;;;;;;6.30;65.60;;;;;;5072667;28;19908;-67
2021/11/30 07:58:40;;;;;;;;;;;6.30;65.50;;;;;;5072766;28;20019;-67
2021/11/30 08:01:06;;;;;;;;;;;6.30;65.50;;;;;;5072779;28;19919;-68
2021/11/30 08:03:32;;;;;;;;;;;6.40;65.60;;;;;;5072691;28;19905;-68
2021/11/30 08:05:57;;;;;;;;;;;6.40;65.60;;;;;;5072767;28;19915;-68
2021/11/30 08:08:23;;;;;;;;;;;6.40;65.70;;;;;;5072664;28;19909;-68
2021/11/30 08:10:49;;;;;;;;;;;6.50;65.70;;;;;;5072556;28;20254;-68
2021/11/30 08:13:15;;;;;;;;;;;6.50;65.50;;;;;;5072525;28;19912;-67
2021/11/30 08:15:40;;;;;;;;;;;6.50;66.20;;;;;;5072363;28;19925;-68
2021/11/30 08:18:06;;;;;;;;;;;6.50;65.30;;;;;;5072559;28;19908;-67
2021/11/30 08:20:31;;;;;;;;;;;6.50;65.10;;;;;;5072724;28;19905;-68
2021/11/30 08:22:57;;;;;;;;;;;6.50;65.00;;;;;;5072600;28;20366;-67
2021/11/30 08:25:24;;;;;;;;;;;6.60;65.00;;;;;;5072504;28;19908;-67
2021/11/30 08:27:50;;;;;;;;;;;6.60;65.00;;;;;;5072415;28;19912;-68
2021/11/30 08:30:16;;;;;;;;;;;6.60;65.00;;;;;;5072539;28;19973;-68
2021/11/30 08:32:41;;;;;;;;;;;6.60;64.80;;;;;;5072281;28;19913;-67
2021/11/30 08:35:08;;;;;;;;;;;6.70;64.80;;;;;;5054431;28;19915;-67
2021/11/30 08:37:34;;;;;;;;;;;6.70;64.70;;;;;;5072439;28;19905;-68
2021/11/30 08:40:00;;;;;;;;;;;6.80;64.70;;;;;;5072212;28;20381;-67
2021/11/30 08:42:25;;;;;;;;;;;6.80;64.60;;;;;;5072419;28;20302;-67
2021/11/30 08:44:51;;;;;;;;;;;6.80;64.10;;;;;;5072525;28;20012;-68
2021/11/30 08:47:18;;;;;;;;;;;6.90;64.20;;;;;;5072536;28;19915;-67
2021/11/30 08:49:44;;;;;;;;;;;6.90;64.20;;;;;;5072458;28;19912;-68
2021/11/30 08:52:12;;;;;;;;;;;6.90;63.70;;;;;;5072227;28;20281;-68
2021/11/30 08:54:38;;;;;;;;;;;6.90;63.50;;;;;;5072253;28;19958;-67
2021/11/30 08:57:07;;;;;;;;;;;7.00;63.50;;;;;;5073528;28;19909;-67
2021/11/30 08:59:33;;;;;;;;;;;7.00;63.20;;;;;;5075843;28;19961;-67
2021/11/30 09:01:59;;;;;;;;;;;7.00;63.40;;;;;;5075699;28;19912;-68
2021/11/30 09:04:25;;;;;;;;;;;7.00;62.50;;;;;;5075795;28;19915;-67
2021/11/30 09:06:51;;;;;;;;;;;7.00;62.20;;;;;;5075833;28;19909;-67
2021/11/30 09:09:18;;;;;;;;;;;7.00;62.30;;;;;;5075705;28;19908;-68
2021/11/30 09:11:44;;;;;;;;;;;7.10;62.20;;;;;;5057532;28;19915;-68
2021/11/30 09:14:11;;;;;;;;;;;7.10;62.00;;;;;;5075447;28;20352;-67
2021/11/30 09:16:37;;;;;;;;;;;7.10;62.10;;;;;;5075554;28;20006;-67
2021/11/30 09:19:04;;;;;;;;;;;7.20;62.10;;;;;;5057713;28;19940;-68
2021/11/30 09:21:30;;;;;;;;;;;7.20;61.70;;;;;;5075240;28;19915;-67
2021/11/30 09:23:56;;;;;;;;;;;7.20;61.70;;;;;;5075508;28;19912;-67
2021/11/30 09:26:22;;;;;;;;;;;7.20;61.70;;;;;;5075498;28;20285;-68
2021/11/30 09:28:48;;;;;;;;;;;7.20;61.90;;;;;;5075369;28;19909;-67
2021/11/30 09:31:15;;;;;;;;;;;7.20;61.90;;;;;;5075361;28;20011;-67
2021/11/30 09:33:41;;;;;;;;;;;7.20;61.90;;;;;;5075172;28;19912;-67
2021/11/30 09:36:07;;;;;;;;;;;7.20;61.80;;;;;;5075169;28;19915;-68
2021/11/30 09:38:33;;;;;;;;;;;7.20;61.70;;;;;;5075090;28;19908;-67
2021/11/30 09:41:01;;;;;;;;;;;7.10;61.50;;;;;;5075155;28;20278;-67
2021/11/30 09:43:27;;;;;;;;;;;7.10;61.50;;;;;;5075127;28;20263;-68
2021/11/30 09:45:55;;;;;;;;;;;7.10;61.60;;;;;;5075062;28;19919;-68
2021/11/30 09:48:21;;;;;;;;;;;7.10;61.80;;;;;;5074968;28;19916;-67
2021/11/30 09:50:46;;;;;;;;;;;7.10;62.10;;;;;;5074914;28;20322;-67
2021/11/30 09:53:12;;;;;;;;;;;7.10;62.10;;;;;;5074853;28;19982;-67
2021/11/30 09:55:39;;;;;;;;;;;7.10;62.00;;;;;;5074865;28;19914;-67
2021/11/30 09:58:05;;;;;;;;;;;7.10;62.00;;;;;;5056761;28;19908;-67
2021/11/30 10:00:33;;;;;;;;;;;7.00;61.90;;;;;;5074756;28;20351;-67
2021/11/30 10:02:59;;;;;;;;;;;7.00;62.00;;;;;;5074543;28;20388;-67
2021/11/30 10:05:25;;;;;;;;;;;7.00;62.10;;;;;;5074523;28;19931;-68
2021/11/30 10:07:51;;;;;;;;;;;7.00;62.00;;;;;;5074125;28;19908;-67
2021/11/30 10:10:17;;;;;;;;;;;7.00;62.20;;;;;;5074189;28;19915;-67
2021/11/30 10:12:43;;;;;;;;;;;7.00;62.30;;;;;;5074395;28;19912;-68
2021/11/30 10:15:10;;;;;;;;;;;7.00;62.10;;;;;;5074378;28;20298;-67
2021/11/30 10:17:37;;;;;;;;;;;7.10;62.50;;;;;;5074414;28;20330;-67
2021/11/30 10:20:07;;;;;;;;;;;7.10;62.80;;;;;;5074446;28;19908;-67
2021/11/30 10:22:33;;;;;;;;;;;7.20;63.00;;;;;;5074543;28;19913;-68
2021/11/30 10:25:14;;;;;;;;;;;7.20;62.70;;;;;;5074219;28;19916;-68
2021/11/30 10:27:43;;;;;;;;;;;7.30;62.70;;;;;;5074123;28;20286;-68
2021/11/30 10:30:10;;;;;;;;;;;7.30;62.70;;;;;;5074036;28;19909;-67
2021/11/30 10:32:36;;;;;;;;;;;7.30;62.30;;;;;;5074037;28;19912;-67
2021/11/30 10:35:02;;;;;;;;;;;7.40;62.20;;;;;;5074059;28;20278;-68
2021/11/30 10:37:27;;;;;;;;;;;7.30;62.00;;;;;;5056104;28;20250;-67
2021/11/30 10:40:06;;;;;;;;;;;7.40;62.30;;;;;;5073705;28;19912;-67
2021/11/30 10:42:31;;;;;;;;;;;7.30;62.20;;;;;;5073962;28;19915;-67
2021/11/30 10:44:57;;;;;;;;;;;7.30;62.10;;;;;;5073875;28;19908;-67
2021/11/30 10:47:24;;;;;;;;;;;7.30;62.10;;;;;;5073862;28;19943;-67
2021/11/30 10:49:52;;;;;;;;;;;7.30;62.20;;;;;;5073772;28;19916;-68
2021/11/30 10:52:19;;;;;;;;;;;7.30;62.10;;;;;;5055730;28;19940;-68
2021/11/30 10:54:45;;;;;;;;;;;7.30;62.10;;;;;;5073684;28;19916;-67
2021/11/30 10:57:10;;;;;;;;;;;7.20;62.10;;;;;;5073686;28;19913;-67
2021/11/30 10:59:36;;;;;;;;;;;7.20;62.10;;;;;;5073516;28;20345;-68
2021/11/30 11:02:02;;;;;;;;;;;7.20;62.40;;;;;;5073587;28;20258;-68
2021/11/30 11:04:29;;;;;;;;;;;7.10;62.80;;;;;;5073457;28;19953;-67
2021/11/30 11:07:23;;;;;;;;;;;7.10;63.10;;;;;;5073467;28;20003;-67
2021/11/30 11:09:50;;;;;;;;;;;7.00;63.20;;;;;;5064333;28;19909;-67
2021/11/30 11:12:26;;;;;;;;;;;7.00;63.40;;;;;;5073318;28;19920;-67
2021/11/30 11:14:51;;;;;;;;;;;7.00;63.70;;;;;;5073238;28;19959;-67
2021/11/30 11:17:30;;;;;;;;;;;6.90;63.80;;;;;;5073327;28;19939;-67
2021/11/30 11:19:56;;;;;;;;;;;6.90;64.10;;;;;;5073182;28;20414;-68
2021/11/30 11:22:23;;;;;;;;;;;6.90;64.20;;;;;;5055291;28;19951;-67
2021/11/30 11:24:50;;;;;;;;;;;6.90;64.00;;;;;;5073626;28;19904;-67
2021/11/30 11:27:17;;;;;;;;;;;6.80;64.00;;;;;;5073171;28;19908;-67
2021/11/30 11:29:43;;;;;;;;;;;6.80;64.60;;;;;;5073208;28;20391;-67
2021/11/30 11:32:10;;;;;;;;;;;6.70;65.10;;;;;;5072978;28;20390;-67
2021/11/30 11:34:36;;;;;;;;;;;6.60;65.10;;;;;;5072943;28;19909;-68
2021/11/30 11:37:05;;;;;;;;;;;6.60;64.80;;;;;;5073069;28;19908;-68
2021/11/30 11:39:31;;;;;;;;;;;6.50;64.40;;;;;;5072817;28;19909;-67
2021/11/30 11:41:58;;;;;;;;;;;6.50;64.50;;;;;;5073083;28;20281;-67
2021/11/30 11:44:24;;;;;;;;;;;6.50;64.40;;;;;;5072975;28;19912;-67
2021/11/30 11:46:51;;;;;;;;;;;6.40;64.40;;;;;;5073039;28;19908;-67
2021/11/30 11:49:21;;;;;;;;;;;6.40;64.40;;;;;;5072946;28;19931;-68
2021/11/30 11:51:47;;;;;;;;;;;6.30;64.50;;;;;;5073055;28;19966;-67
2021/11/30 11:54:22;;;;;;;;;;;6.30;64.50;;;;;;5072861;28;19913;-68
2021/11/30 11:56:55;;;;;;;;;;;6.20;64.60;;;;;;5072886;28;19947;-67
2021/11/30 11:59:21;;;;;;;;;;;6.20;64.80;;;;;;5072978;28;19954;-67
2021/11/30 12:01:48;;;;;;;;;;;6.20;64.90;;;;;;5073140;28;19952;-67
2021/11/30 12:04:15;;;;;;;;;;;6.10;64.90;;;;;;5055093;28;20320;-68
2021/11/30 12:06:51;;;;;;;;;;;6.00;64.90;;;;;;5073071;28;19909;-68
2021/11/30 12:09:43;;;;;;;;;;;6.00;65.10;;;;;;5073018;28;19999;-67
2021/11/30 12:12:09;;;;;;;;;;;6.00;65.40;;;;;;5070700;28;20281;-67
2021/11/30 12:14:34;;;;;;;;;;;6.00;65.70;;;;;;5051345;28;19921;-68
2021/11/30 12:17:12;;;;;;;;;;;6.00;65.90;;;;;;5051403;28;19913;-68
2021/11/30 12:19:38;;;;;;;;;;;6.00;66.00;;;;;;5052688;28;19909;-68
2021/11/30 12:22:04;;;;;;;;;;;6.00;66.10;;;;;;5051377;28;19925;-68
2021/11/30 12:24:33;;;;;;;;;;;6.00;66.20;;;;;;5052695;28;19944;-68
2021/11/30 12:27:02;;;;;;;;;;;6.00;66.30;;;;;;5052024;28;20223;-68
2021/11/30 12:29:30;;;;;;;;;;;6.10;66.50;;;;;;5052499;28;19956;-68
2021/11/30 12:31:57;;;;;;;;;;;6.10;66.50;;;;;;5053513;28;19978;-68
2021/11/30 12:34:36;;;;;;;;;;;6.20;66.50;;;;;;5056360;28;19936;-68
2021/11/30 12:37:06;;;;;;;;;;;6.20;66.50;;;;;;5056503;28;20263;-68
2021/11/30 12:39:50;;;;;;;;;;;6.20;66.50;;;;;;5056282;28;20475;-68
2021/11/30 12:42:15;;;;;;;;;;;6.20;67.10;;;;;;5056262;28;20434;-68
2021/11/30 12:44:42;;;;;;;;;;;6.10;66.00;;;;;;5056226;28;20008;-68
2021/11/30 12:47:18;;;;;;;;;;;6.20;66.10;;;;;;5056098;28;19909;-68
2021/11/30 12:49:44;;;;;;;;;;;6.20;66.30;;;;;;5071470;28;20413;-68
2021/11/30 12:52:14;;;;;;;;;;;6.20;66.20;;;;;;5056026;28;19909;-68
2021/11/30 12:55:00;;;;;;;;;;;6.20;66.20;;;;;;5055939;28;20281;-68
2021/11/30 12:57:31;;;;;;;;;;;6.20;66.30;;;;;;5050524;28;20019;-68
2021/11/30 13:00:15;;;;;;;;;;;6.20;66.40;;;;;;5056026;28;19908;-67
2021/11/30 13:02:42;;;;;;;;;;;6.20;66.50;;;;;;5055655;28;19995;-68
2021/11/30 13:05:07;;;;;;;;;;;6.30;66.50;;;;;;5055759;28;19909;-68
2021/11/30 13:07:34;;;;;;;;;;;6.30;66.40;;;;;;5055668;28;19915;-68
2021/11/30 13:10:00;;;;;;;;;;;6.30;66.40;;;;;;5055728;28;19913;-68
2021/11/30 13:12:28;;;;;;;;;;;6.30;66.40;;;;;;5055524;28;19913;-68
2021/11/30 13:14:54;;;;;;;;;;;6.30;66.60;;;;;;5062899;28;20011;-68
2021/11/30 13:17:25;;;;;;;;;;;6.30;66.70;;;;;;5075781;28;19912;-68
2021/11/30 13:19:51;;;;;;;;;;;6.40;66.70;;;;;;5075826;28;20424;-68
2021/11/30 13:22:18;;;;;;;;;;;6.40;66.80;;;;;;5075654;28;19908;-68
2021/11/30 13:24:48;;;;;;;;;;;6.40;66.80;;;;;;5075443;28;20381;-68
2021/11/30 13:27:15;;;;;;;;;;;6.40;66.70;;;;;;5075329;28;19909;-68
2021/11/30 13:30:10;;;;;;;;;;;6.40;66.90;;;;;;5075465;28;20266;-68
2021/11/30 13:32:43;;;;;;;;;;;6.50;66.90;;;;;;5065979;28;20030;-68
2021/11/30 13:35:12;;;;;;;;;;;6.50;66.60;;;;;;5075317;28;19909;-68
2021/11/30 13:37:39;;;;;;;;;;;6.50;66.70;;;;;;5075283;28;20429;-68
2021/11/30 13:40:09;;;;;;;;;;;6.40;66.40;;;;;;5057194;28;19908;-67
2021/11/30 13:42:54;;;;;;;;;;;6.40;66.30;;;;;;5056586;28;19947;-68
2021/11/30 13:45:19;;;;;;;;;;;6.40;66.40;;;;;;5074714;28;20000;-68
2021/11/30 13:47:47;;;;;;;;;;;6.40;66.50;;;;;;5074982;28;19991;-68
2021/11/30 13:50:12;;;;;;;;;;;6.40;66.60;;;;;;5056993;28;19909;-68
2021/11/30 13:52:38;;;;;;;;;;;6.40;66.70;;;;;;5074830;28;19920;-68
2021/11/30 13:55:04;;;;;;;;;;;6.40;66.50;;;;;;5074960;28;19915;-68
2021/11/30 13:57:32;;;;;;;;;;;6.30;66.50;;;;;;5074769;28;19908;-68
2021/11/30 14:00:01;;;;;;;;;;;6.30;66.50;;;;;;5074742;28;19909;-68
2021/11/30 14:02:37;;;;;;;;;;;6.30;66.60;;;;;;5074843;28;19932;-68
2021/11/30 14:05:03;;;;;;;;;;;6.30;66.70;;;;;;5074731;28;20312;-68
2021/11/30 14:07:30;;;;;;;;;;;6.30;66.70;;;;;;5074644;28;20278;-68
2021/11/30 14:09:59;;;;;;;;;;;6.30;66.80;;;;;;5074568;28;20008;-68
2021/11/30 14:12:26;;;;;;;;;;;6.30;67.00;;;;;;5074516;28;20329;-68
2021/11/30 14:14:52;;;;;;;;;;;6.30;66.90;;;;;;5074307;28;20029;-68
2021/11/30 14:17:23;;;;;;;;;;;6.30;67.00;;;;;;5074424;28;19908;-68
2021/11/30 14:19:49;;;;;;;;;;;6.20;66.90;;;;;;5074661;28;19904;-67
2021/11/30 14:22:16;;;;;;;;;;;6.20;66.90;;;;;;5074585;28;19933;-68
2021/11/30 14:24:55;;;;;;;;;;;6.20;67.10;;;;;;5074532;28;20345;-68
2021/11/30 14:27:26;;;;;;;;;;;6.20;67.10;;;;;;5056291;28;19962;-68
2021/11/30 14:29:52;;;;;;;;;;;6.20;67.30;;;;;;5074237;28;19999;-68
2021/11/30 14:32:22;;;;;;;;;;;6.20;67.40;;;;;;5074073;28;20414;-69
2021/11/30 14:34:51;;;;;;;;;;;6.20;67.40;;;;;;5073936;28;19999;-68
2021/11/30 14:37:16;;;;;;;;;;;6.20;67.50;;;;;;5073963;28;19908;-68
2021/11/30 14:39:42;;;;;;;;;;;6.20;67.50;;;;;;5074009;28;19914;-69
2021/11/30 14:42:26;;;;;;;;;;;6.20;67.50;;;;;;5073924;28;20304;-68
2021/11/30 14:45:10;;;;;;;;;;;6.20;67.40;;;;;;5073927;28;19931;-68